sensor_id;sensor_type;location;lat;lon;timestamp;temperature;humidity
28193;DHT22;15473;50.840;3.396;2022-09-06T00:01:56;19.30;99.90
28193;DHT22;15473;50.840;3.396;2022-09-06T00:04:26;19.30;99.90
28193;DHT22;15473;50.840;3.396;2022-09-06T00:06:56;19.20;99.90
28193;DHT22;15473;50.840;3.396;2022-09-06T00:09:26;19.30;99.90
28193;DHT22;15473;50.840;3.396;2022-09-06T00:11:56;19.30;99.90
28193;DHT22;15473;50.840;3.396;2022-09-06T00:14:26;19.30;99.90
28193;DHT22;15473;50.840;3.396;2022-09-06T00:16:56;19.30;99.90
28193;DHT22;15473;50.840;3.396;2022-09-06T00:19:27;19.30;99.90
28193;DHT22;15473;50.840;3.396;2022-09-06T00:21:57;19.20;99.90
28193;DHT22;15473;50.840;3.396;2022-09-06T00:24:27;19.20;99.90
28193;DHT22;15473;50.840;3.396;2022-09-06T00:26:57;19.10;99.90
28193;DHT22;15473;50.840;3.396;2022-09-06T00:29:27;19.10;99.90
28193;DHT22;15473;50.840;3.396;2022-09-06T00:31:57;19.00;99.90
28193;DHT22;15473;50.840;3.396;2022-09-06T00:34:27;19.00;99.90
28193;DHT22;15473;50.840;3.396;2022-09-06T00:36:57;18.90;99.90
28193;DHT22;15473;50.840;3.396;2022-09-06T00:39:27;18.90;99.90
28193;DHT22;15473;50.840;3.396;2022-09-06T00:41:57;18.70;99.90
28193;DHT22;15473;50.840;3.396;2022-09-06T00:44:27;18.60;99.90
28193;DHT22;15473;50.840;3.396;2022-09-06T00:46:57;18.60;99.90
28193;DHT22;15473;50.840;3.396;2022-09-06T00:49:30;18.60;99.90
28193;DHT22;15473;50.840;3.396;2022-09-06T00:52:04;18.50;99.90
28193;DHT22;15473;50.840;3.396;2022-09-06T00:54:34;18.40;99.90
28193;DHT22;15473;50.840;3.396;2022-09-06T00:57:05;18.40;99.90
28193;DHT22;15473;50.840;3.396;2022-09-06T00:59:36;18.40;99.90
28193;DHT22;15473;50.840;3.396;2022-09-06T01:02:08;18.40;99.90
28193;DHT22;15473;50.840;3.396;2022-09-06T01:04:40;18.40;99.90
28193;DHT22;15473;50.840;3.396;2022-09-06T01:10:12;18.20;99.90
28193;DHT22;15473;50.840;3.396;2022-09-06T01:15:46;18.20;99.90
28193;DHT22;15473;50.840;3.396;2022-09-06T01:29:51;17.90;99.90
28193;DHT22;15473;50.840;3.396;2022-09-06T01:35:10;17.80;99.90
28193;DHT22;15473;50.840;3.396;2022-09-06T01:37:37;17.70;99.90
28193;DHT22;15473;50.840;3.396;2022-09-06T01:40:07;17.70;99.90
28193;DHT22;15473;50.840;3.396;2022-09-06T01:42:39;17.70;99.90
28193;DHT22;15473;50.840;3.396;2022-09-06T01:45:13;17.70;99.90
28193;DHT22;15473;50.840;3.396;2022-09-06T01:47:47;17.70;99.90
28193;DHT22;15473;50.840;3.396;2022-09-06T01:53:16;17.70;99.90
28193;DHT22;15473;50.840;3.396;2022-09-06T01:55:57;17.70;99.90
28193;DHT22;15473;50.840;3.396;2022-09-06T02:01:25;17.60;99.90
28193;DHT22;15473;50.840;3.396;2022-09-06T02:04:19;17.60;99.90
28193;DHT22;15473;50.840;3.396;2022-09-06T02:06:53;17.60;99.90
28193;DHT22;15473;50.840;3.396;2022-09-06T02:09:26;17.60;99.90
28193;DHT22;15473;50.840;3.396;2022-09-06T02:11:59;17.50;99.90
28193;DHT22;15473;50.840;3.396;2022-09-06T02:14:39;17.50;99.90
28193;DHT22;15473;50.840;3.396;2022-09-06T02:17:11;17.50;99.90
28193;DHT22;15473;50.840;3.396;2022-09-06T02:19:45;17.50;99.90
28193;DHT22;15473;50.840;3.396;2022-09-06T02:22:17;17.50;99.90
28193;DHT22;15473;50.840;3.396;2022-09-06T02:24:51;17.60;99.90
28193;DHT22;15473;50.840;3.396;2022-09-06T02:27:22;17.60;99.90
28193;DHT22;15473;50.840;3.396;2022-09-06T02:29:52;17.70;99.90
28193;DHT22;15473;50.840;3.396;2022-09-06T02:32:23;17.80;99.90
28193;DHT22;15473;50.840;3.396;2022-09-06T02:34:55;17.90;99.90
28193;DHT22;15473;50.840;3.396;2022-09-06T02:37:26;17.90;99.90
28193;DHT22;15473;50.840;3.396;2022-09-06T02:39:56;17.90;99.90
28193;DHT22;15473;50.840;3.396;2022-09-06T02:42:28;17.90;99.90
28193;DHT22;15473;50.840;3.396;2022-09-06T02:44:58;17.80;99.90
28193;DHT22;15473;50.840;3.396;2022-09-06T02:47:28;17.80;99.90
28193;DHT22;15473;50.840;3.396;2022-09-06T02:49:58;17.80;99.90
28193;DHT22;15473;50.840;3.396;2022-09-06T02:52:28;17.80;99.90
28193;DHT22;15473;50.840;3.396;2022-09-06T02:54:58;17.70;99.90
28193;DHT22;15473;50.840;3.396;2022-09-06T02:57:29;17.80;99.90
28193;DHT22;15473;50.840;3.396;2022-09-06T02:59:59;17.70;99.90
28193;DHT22;15473;50.840;3.396;2022-09-06T03:02:29;17.70;99.90
28193;DHT22;15473;50.840;3.396;2022-09-06T03:04:59;17.70;99.90
28193;DHT22;15473;50.840;3.396;2022-09-06T03:07:29;17.70;99.90
28193;DHT22;15473;50.840;3.396;2022-09-06T03:09:59;17.60;99.90
28193;DHT22;15473;50.840;3.396;2022-09-06T03:12:29;17.60;99.90
28193;DHT22;15473;50.840;3.396;2022-09-06T03:14:59;17.60;99.90
28193;DHT22;15473;50.840;3.396;2022-09-06T03:17:29;17.60;99.90
28193;DHT22;15473;50.840;3.396;2022-09-06T03:19:59;17.50;99.90
28193;DHT22;15473;50.840;3.396;2022-09-06T03:22:29;17.50;99.90
28193;DHT22;15473;50.840;3.396;2022-09-06T03:24:59;17.50;99.90
28193;DHT22;15473;50.840;3.396;2022-09-06T03:27:29;17.50;99.90
28193;DHT22;15473;50.840;3.396;2022-09-06T03:29:59;17.50;99.90
28193;DHT22;15473;50.840;3.396;2022-09-06T03:32:29;17.50;99.90
28193;DHT22;15473;50.840;3.396;2022-09-06T03:34:59;17.50;99.90
28193;DHT22;15473;50.840;3.396;2022-09-06T03:37:29;17.50;99.90
28193;DHT22;15473;50.840;3.396;2022-09-06T03:39:59;17.50;99.90
28193;DHT22;15473;50.840;3.396;2022-09-06T03:42:29;17.50;99.90
28193;DHT22;15473;50.840;3.396;2022-09-06T03:44:59;17.50;99.90
28193;DHT22;15473;50.840;3.396;2022-09-06T03:47:29;17.40;99.90
28193;DHT22;15473;50.840;3.396;2022-09-06T03:49:59;17.40;99.90
28193;DHT22;15473;50.840;3.396;2022-09-06T03:52:29;17.30;99.90
28193;DHT22;15473;50.840;3.396;2022-09-06T03:54:59;17.30;99.90
28193;DHT22;15473;50.840;3.396;2022-09-06T03:57:30;17.30;99.90
28193;DHT22;15473;50.840;3.396;2022-09-06T04:00:01;17.30;99.90
28193;DHT22;15473;50.840;3.396;2022-09-06T04:02:31;17.20;99.90
28193;DHT22;15473;50.840;3.396;2022-09-06T04:05:01;17.20;99.90
28193;DHT22;15473;50.840;3.396;2022-09-06T04:07:31;17.10;99.90
28193;DHT22;15473;50.840;3.396;2022-09-06T04:10:01;17.10;99.90
28193;DHT22;15473;50.840;3.396;2022-09-06T04:12:31;17.10;99.90
28193;DHT22;15473;50.840;3.396;2022-09-06T04:15:03;17.10;99.90
28193;DHT22;15473;50.840;3.396;2022-09-06T04:17:33;17.10;99.90
28193;DHT22;15473;50.840;3.396;2022-09-06T04:20:03;17.10;99.90
28193;DHT22;15473;50.840;3.396;2022-09-06T04:22:34;17.10;99.90
28193;DHT22;15473;50.840;3.396;2022-09-06T04:25:04;17.10;99.90
28193;DHT22;15473;50.840;3.396;2022-09-06T04:27:34;17.10;99.90
28193;DHT22;15473;50.840;3.396;2022-09-06T04:32:55;17.10;99.90
28193;DHT22;15473;50.840;3.396;2022-09-06T04:35:25;17.10;99.90
28193;DHT22;15473;50.840;3.396;2022-09-06T04:37:59;17.10;99.90
28193;DHT22;15473;50.840;3.396;2022-09-06T04:40:30;17.00;99.90
28193;DHT22;15473;50.840;3.396;2022-09-06T04:43:00;16.90;99.90
28193;DHT22;15473;50.840;3.396;2022-09-06T04:45:30;16.80;99.90
28193;DHT22;15473;50.840;3.396;2022-09-06T04:48:00;16.80;99.90
28193;DHT22;15473;50.840;3.396;2022-09-06T04:50:30;16.80;99.90
28193;DHT22;15473;50.840;3.396;2022-09-06T04:53:00;16.80;99.90
28193;DHT22;15473;50.840;3.396;2022-09-06T04:55:30;16.80;99.90
28193;DHT22;15473;50.840;3.396;2022-09-06T04:58:00;16.80;99.90
28193;DHT22;15473;50.840;3.396;2022-09-06T05:00:33;16.80;99.90
28193;DHT22;15473;50.840;3.396;2022-09-06T05:03:03;16.70;99.90
28193;DHT22;15473;50.840;3.396;2022-09-06T05:05:34;16.70;99.90
28193;DHT22;15473;50.840;3.396;2022-09-06T05:08:04;16.70;99.90
28193;DHT22;15473;50.840;3.396;2022-09-06T05:10:34;16.80;99.90
28193;DHT22;15473;50.840;3.396;2022-09-06T05:13:04;16.80;99.90
28193;DHT22;15473;50.840;3.396;2022-09-06T05:15:34;16.70;99.90
28193;DHT22;15473;50.840;3.396;2022-09-06T05:18:04;16.70;99.90
28193;DHT22;15473;50.840;3.396;2022-09-06T05:20:34;16.60;99.90
28193;DHT22;15473;50.840;3.396;2022-09-06T05:23:05;16.60;99.90
28193;DHT22;15473;50.840;3.396;2022-09-06T05:25:35;16.50;99.90
28193;DHT22;15473;50.840;3.396;2022-09-06T05:28:05;16.40;99.90
28193;DHT22;15473;50.840;3.396;2022-09-06T05:30:35;16.50;99.90
28193;DHT22;15473;50.840;3.396;2022-09-06T05:33:05;16.50;99.90
28193;DHT22;15473;50.840;3.396;2022-09-06T05:35:35;16.50;99.90
28193;DHT22;15473;50.840;3.396;2022-09-06T05:38:05;16.60;99.90
28193;DHT22;15473;50.840;3.396;2022-09-06T05:40:35;16.60;99.90
28193;DHT22;15473;50.840;3.396;2022-09-06T05:43:05;16.70;99.90
28193;DHT22;15473;50.840;3.396;2022-09-06T05:45:36;16.80;99.90
28193;DHT22;15473;50.840;3.396;2022-09-06T05:48:06;16.80;99.90
28193;DHT22;15473;50.840;3.396;2022-09-06T05:50:36;16.80;99.90
28193;DHT22;15473;50.840;3.396;2022-09-06T05:53:06;16.90;99.90
28193;DHT22;15473;50.840;3.396;2022-09-06T05:55:38;17.00;99.90
28193;DHT22;15473;50.840;3.396;2022-09-06T05:58:08;17.00;99.90
28193;DHT22;15473;50.840;3.396;2022-09-06T06:00:42;17.00;99.90
28193;DHT22;15473;50.840;3.396;2022-09-06T06:03:12;17.10;99.90
28193;DHT22;15473;50.840;3.396;2022-09-06T06:05:46;17.10;99.90
28193;DHT22;15473;50.840;3.396;2022-09-06T06:08:17;17.10;99.90
28193;DHT22;15473;50.840;3.396;2022-09-06T06:10:47;17.10;99.90
28193;DHT22;15473;50.840;3.396;2022-09-06T10:45:43;24.10;99.90
28193;DHT22;15473;50.840;3.396;2022-09-06T10:48:31;24.20;99.90
28193;DHT22;15473;50.840;3.396;2022-09-06T10:53:53;24.40;99.90
28193;DHT22;15473;50.840;3.396;2022-09-06T10:56:31;24.40;99.90
28193;DHT22;15473;50.840;3.396;2022-09-06T11:04:39;24.90;99.90
28193;DHT22;15473;50.840;3.396;2022-09-06T11:07:22;25.40;99.90
28193;DHT22;15473;50.840;3.396;2022-09-06T11:09:58;25.70;99.90
28193;DHT22;15473;50.840;3.396;2022-09-06T11:15:19;25.60;99.90
28193;DHT22;15473;50.840;3.396;2022-09-06T11:20:38;25.40;99.90
28193;DHT22;15473;50.840;3.396;2022-09-06T11:32:01;25.50;99.90
28193;DHT22;15473;50.840;3.396;2022-09-06T11:34:36;25.80;99.90
28193;DHT22;15473;50.840;3.396;2022-09-06T11:37:06;26.00;99.90
28193;DHT22;15473;50.840;3.396;2022-09-06T11:39:43;26.10;99.90
28193;DHT22;15473;50.840;3.396;2022-09-06T11:45:12;25.90;99.90
28193;DHT22;15473;50.840;3.396;2022-09-06T11:53:15;26.10;99.90
28193;DHT22;15473;50.840;3.396;2022-09-06T11:56:08;26.20;99.90
28193;DHT22;15473;50.840;3.396;2022-09-06T11:58:23;26.20;99.90
28193;DHT22;15473;50.840;3.396;2022-09-06T12:09:32;25.80;99.90
28193;DHT22;15473;50.840;3.396;2022-09-06T12:12:02;25.90;99.90
28193;DHT22;15473;50.840;3.396;2022-09-06T12:14:38;26.00;99.90
28193;DHT22;15473;50.840;3.396;2022-09-06T12:19:56;26.30;99.90
28193;DHT22;15473;50.840;3.396;2022-09-06T12:28:11;26.90;99.90
28193;DHT22;15473;50.840;3.396;2022-09-06T12:30:42;26.80;99.90
28193;DHT22;15473;50.840;3.396;2022-09-06T12:36:18;26.60;99.90
28193;DHT22;15473;50.840;3.396;2022-09-06T12:39:02;26.30;99.90
28193;DHT22;15473;50.840;3.396;2022-09-06T12:41:40;26.30;99.90
28193;DHT22;15473;50.840;3.396;2022-09-06T12:44:13;26.40;99.90
28193;DHT22;15473;50.840;3.396;2022-09-06T12:46:49;26.70;99.90
28193;DHT22;15473;50.840;3.396;2022-09-06T12:49:21;26.90;99.90
28193;DHT22;15473;50.840;3.396;2022-09-06T12:52:10;26.90;99.90
28193;DHT22;15473;50.840;3.396;2022-09-06T12:54:45;26.80;99.90
28193;DHT22;15473;50.840;3.396;2022-09-06T12:57:20;26.90;99.90
28193;DHT22;15473;50.840;3.396;2022-09-06T12:59:57;26.90;99.90
28193;DHT22;15473;50.840;3.396;2022-09-06T13:02:34;26.90;99.90
28193;DHT22;15473;50.840;3.396;2022-09-06T13:05:05;26.80;99.90
28193;DHT22;15473;50.840;3.396;2022-09-06T13:07:43;26.50;99.90
28193;DHT22;15473;50.840;3.396;2022-09-06T13:10:11;26.40;99.90
28193;DHT22;15473;50.840;3.396;2022-09-06T13:12:45;26.30;99.90
28193;DHT22;15473;50.840;3.396;2022-09-06T13:15:26;26.40;99.90
28193;DHT22;15473;50.840;3.396;2022-09-06T13:18:39;26.70;99.90
28193;DHT22;15473;50.840;3.396;2022-09-06T13:23:52;26.90;99.90
28193;DHT22;15473;50.840;3.396;2022-09-06T13:26:34;26.90;99.90
28193;DHT22;15473;50.840;3.396;2022-09-06T13:31:50;27.20;99.90
28193;DHT22;15473;50.840;3.396;2022-09-06T13:34:33;27.30;99.90
28193;DHT22;15473;50.840;3.396;2022-09-06T13:37:08;27.50;99.90
28193;DHT22;15473;50.840;3.396;2022-09-06T13:39:41;27.40;99.90
28193;DHT22;15473;50.840;3.396;2022-09-06T13:42:29;27.40;99.90
28193;DHT22;15473;50.840;3.396;2022-09-06T13:45:24;27.30;99.90
28193;DHT22;15473;50.840;3.396;2022-09-06T13:47:54;27.30;99.90
28193;DHT22;15473;50.840;3.396;2022-09-06T13:50:25;27.10;99.90
28193;DHT22;15473;50.840;3.396;2022-09-06T13:52:55;27.00;99.90
28193;DHT22;15473;50.840;3.396;2022-09-06T13:55:27;26.80;99.90
28193;DHT22;15473;50.840;3.396;2022-09-06T13:57:58;26.60;99.90
28193;DHT22;15473;50.840;3.396;2022-09-06T14:00:28;26.50;99.90
28193;DHT22;15473;50.840;3.396;2022-09-06T14:03:07;26.50;99.90
28193;DHT22;15473;50.840;3.396;2022-09-06T14:05:37;26.50;99.90
28193;DHT22;15473;50.840;3.396;2022-09-06T14:08:08;26.50;99.90
28193;DHT22;15473;50.840;3.396;2022-09-06T14:10:38;26.60;99.90
28193;DHT22;15473;50.840;3.396;2022-09-06T14:13:08;26.70;99.90
28193;DHT22;15473;50.840;3.396;2022-09-06T14:15:38;26.80;99.90
28193;DHT22;15473;50.840;3.396;2022-09-06T14:18:08;26.80;99.90
28193;DHT22;15473;50.840;3.396;2022-09-06T14:20:39;26.80;99.90
28193;DHT22;15473;50.840;3.396;2022-09-06T14:23:09;26.80;99.90
28193;DHT22;15473;50.840;3.396;2022-09-06T14:25:39;26.70;99.90
28193;DHT22;15473;50.840;3.396;2022-09-06T14:28:09;26.70;99.90
28193;DHT22;15473;50.840;3.396;2022-09-06T14:30:39;26.60;99.90
28193;DHT22;15473;50.840;3.396;2022-09-06T14:33:09;26.40;99.90
28193;DHT22;15473;50.840;3.396;2022-09-06T14:38:30;26.10;99.90
28193;DHT22;15473;50.840;3.396;2022-09-06T14:41:03;26.00;99.90
28193;DHT22;15473;50.840;3.396;2022-09-06T14:43:34;25.90;99.90
28193;DHT22;15473;50.840;3.396;2022-09-06T14:46:06;26.10;99.90
28193;DHT22;15473;50.840;3.396;2022-09-06T14:49:03;26.30;99.90
28193;DHT22;15473;50.840;3.396;2022-09-06T14:51:28;26.30;99.90
28193;DHT22;15473;50.840;3.396;2022-09-06T14:54:11;26.40;99.90
28193;DHT22;15473;50.840;3.396;2022-09-06T14:56:42;26.30;99.90
28193;DHT22;15473;50.840;3.396;2022-09-06T14:59:13;26.20;99.90
28193;DHT22;15473;50.840;3.396;2022-09-06T15:01:43;26.10;99.90
28193;DHT22;15473;50.840;3.396;2022-09-06T15:04:13;26.00;99.90
28193;DHT22;15473;50.840;3.396;2022-09-06T15:06:49;25.90;99.90
28193;DHT22;15473;50.840;3.396;2022-09-06T15:09:19;25.70;99.90
28193;DHT22;15473;50.840;3.396;2022-09-06T15:11:50;25.60;99.90
28193;DHT22;15473;50.840;3.396;2022-09-06T15:14:22;25.50;99.90
28193;DHT22;15473;50.840;3.396;2022-09-06T15:19:43;25.30;99.90
28193;DHT22;15473;50.840;3.396;2022-09-06T15:22:13;25.20;99.90
28193;DHT22;15473;50.840;3.396;2022-09-06T15:25:03;25.20;99.90
28193;DHT22;15473;50.840;3.396;2022-09-06T15:27:34;25.20;99.90
28193;DHT22;15473;50.840;3.396;2022-09-06T15:30:04;25.30;99.90
28193;DHT22;15473;50.840;3.396;2022-09-06T15:32:34;25.40;99.90
28193;DHT22;15473;50.840;3.396;2022-09-06T15:35:06;25.50;99.90
28193;DHT22;15473;50.840;3.396;2022-09-06T15:37:36;25.60;99.90
28193;DHT22;15473;50.840;3.396;2022-09-06T15:40:06;25.60;99.90
28193;DHT22;15473;50.840;3.396;2022-09-06T15:42:37;25.80;99.90
28193;DHT22;15473;50.840;3.396;2022-09-06T15:45:08;25.90;99.90
28193;DHT22;15473;50.840;3.396;2022-09-06T15:47:39;25.90;99.90
28193;DHT22;15473;50.840;3.396;2022-09-06T15:50:09;25.90;99.90
28193;DHT22;15473;50.840;3.396;2022-09-06T15:52:39;25.80;99.90
28193;DHT22;15473;50.840;3.396;2022-09-06T15:55:09;25.70;99.90
28193;DHT22;15473;50.840;3.396;2022-09-06T15:57:59;25.50;99.90
28193;DHT22;15473;50.840;3.396;2022-09-06T16:00:29;25.50;99.90
28193;DHT22;15473;50.840;3.396;2022-09-06T16:03:00;25.50;99.90
28193;DHT22;15473;50.840;3.396;2022-09-06T16:05:37;25.50;99.90
28193;DHT22;15473;50.840;3.396;2022-09-06T16:08:03;25.60;99.90
28193;DHT22;15473;50.840;3.396;2022-09-06T16:10:36;25.60;99.90
28193;DHT22;15473;50.840;3.396;2022-09-06T16:13:06;25.60;99.90
28193;DHT22;15473;50.840;3.396;2022-09-06T16:15:36;25.50;99.90
28193;DHT22;15473;50.840;3.396;2022-09-06T16:18:06;25.40;99.90
28193;DHT22;15473;50.840;3.396;2022-09-06T16:20:36;25.20;99.90
28193;DHT22;15473;50.840;3.396;2022-09-06T16:23:07;25.00;99.90
28193;DHT22;15473;50.840;3.396;2022-09-06T16:25:37;24.90;99.90
28193;DHT22;15473;50.840;3.396;2022-09-06T16:28:07;24.70;99.90
28193;DHT22;15473;50.840;3.396;2022-09-06T16:30:41;24.50;99.90
28193;DHT22;15473;50.840;3.396;2022-09-06T16:33:12;24.40;99.90
28193;DHT22;15473;50.840;3.396;2022-09-06T16:35:42;24.20;99.90
28193;DHT22;15473;50.840;3.396;2022-09-06T16:38:13;24.00;99.90
28193;DHT22;15473;50.840;3.396;2022-09-06T16:40:44;23.90;99.90
28193;DHT22;15473;50.840;3.396;2022-09-06T16:43:14;23.90;99.90
28193;DHT22;15473;50.840;3.396;2022-09-06T16:45:58;23.80;99.90
28193;DHT22;15473;50.840;3.396;2022-09-06T16:48:29;23.80;99.90
28193;DHT22;15473;50.840;3.396;2022-09-06T16:51:16;23.80;99.90
28193;DHT22;15473;50.840;3.396;2022-09-06T16:53:44;23.90;99.90
28193;DHT22;15473;50.840;3.396;2022-09-06T16:56:18;23.90;99.90
28193;DHT22;15473;50.840;3.396;2022-09-06T16:58:53;23.90;99.90
28193;DHT22;15473;50.840;3.396;2022-09-06T17:01:25;23.80;99.90
28193;DHT22;15473;50.840;3.396;2022-09-06T17:03:56;23.80;99.90
28193;DHT22;15473;50.840;3.396;2022-09-06T17:06:29;23.80;99.90
28193;DHT22;15473;50.840;3.396;2022-09-06T17:09:01;23.70;99.90
28193;DHT22;15473;50.840;3.396;2022-09-06T17:11:31;23.70;99.90
28193;DHT22;15473;50.840;3.396;2022-09-06T17:14:01;23.60;99.90
28193;DHT22;15473;50.840;3.396;2022-09-06T17:16:31;23.50;99.90
28193;DHT22;15473;50.840;3.396;2022-09-06T17:19:19;23.50;99.90
28193;DHT22;15473;50.840;3.396;2022-09-06T17:21:50;23.50;99.90
28193;DHT22;15473;50.840;3.396;2022-09-06T17:24:20;23.50;99.90
28193;DHT22;15473;50.840;3.396;2022-09-06T17:26:53;23.40;99.90
28193;DHT22;15473;50.840;3.396;2022-09-06T17:29:23;23.30;99.90
28193;DHT22;15473;50.840;3.396;2022-09-06T17:31:54;23.10;99.90
28193;DHT22;15473;50.840;3.396;2022-09-06T17:34:26;22.90;99.90
28193;DHT22;15473;50.840;3.396;2022-09-06T17:36:56;22.90;99.90
28193;DHT22;15473;50.840;3.396;2022-09-06T17:39:26;22.90;99.90
28193;DHT22;15473;50.840;3.396;2022-09-06T17:41:56;22.70;99.90
28193;DHT22;15473;50.840;3.396;2022-09-06T17:44:26;22.70;99.90
28193;DHT22;15473;50.840;3.396;2022-09-06T17:46:58;22.70;99.90
28193;DHT22;15473;50.840;3.396;2022-09-06T17:49:30;22.60;99.90
28193;DHT22;15473;50.840;3.396;2022-09-06T17:52:00;22.50;99.90
28193;DHT22;15473;50.840;3.396;2022-09-06T17:54:30;22.40;99.90
28193;DHT22;15473;50.840;3.396;2022-09-06T17:57:02;22.30;99.90
28193;DHT22;15473;50.840;3.396;2022-09-06T17:59:32;22.30;99.90
28193;DHT22;15473;50.840;3.396;2022-09-06T18:02:03;22.30;99.90
28193;DHT22;15473;50.840;3.396;2022-09-06T18:04:33;22.20;99.90
28193;DHT22;15473;50.840;3.396;2022-09-06T18:07:04;22.20;99.90
28193;DHT22;15473;50.840;3.396;2022-09-06T18:09:34;22.20;99.90
28193;DHT22;15473;50.840;3.396;2022-09-06T18:12:05;22.20;99.90
28193;DHT22;15473;50.840;3.396;2022-09-06T18:14:35;22.20;99.90
28193;DHT22;15473;50.840;3.396;2022-09-06T18:17:06;22.10;99.90
28193;DHT22;15473;50.840;3.396;2022-09-06T18:19:37;22.10;99.90
28193;DHT22;15473;50.840;3.396;2022-09-06T18:22:07;22.00;99.90
28193;DHT22;15473;50.840;3.396;2022-09-06T18:24:37;22.00;99.90
28193;DHT22;15473;50.840;3.396;2022-09-06T18:27:07;21.90;99.90
28193;DHT22;15473;50.840;3.396;2022-09-06T18:29:37;21.90;99.90
28193;DHT22;15473;50.840;3.396;2022-09-06T18:32:07;21.90;99.90
28193;DHT22;15473;50.840;3.396;2022-09-06T18:34:37;21.80;99.90
28193;DHT22;15473;50.840;3.396;2022-09-06T18:37:07;21.80;99.90
28193;DHT22;15473;50.840;3.396;2022-09-06T18:39:39;21.80;99.90
28193;DHT22;15473;50.840;3.396;2022-09-06T18:42:10;21.80;99.90
28193;DHT22;15473;50.840;3.396;2022-09-06T18:44:40;21.70;99.90
28193;DHT22;15473;50.840;3.396;2022-09-06T18:47:12;21.80;99.90
28193;DHT22;15473;50.840;3.396;2022-09-06T18:50:01;22.10;99.90
28193;DHT22;15473;50.840;3.396;2022-09-06T18:52:32;22.20;99.90
28193;DHT22;15473;50.840;3.396;2022-09-06T18:55:03;21.90;99.90
28193;DHT22;15473;50.840;3.396;2022-09-06T18:57:33;21.80;99.90
28193;DHT22;15473;50.840;3.396;2022-09-06T19:00:03;21.70;99.90
28193;DHT22;15473;50.840;3.396;2022-09-06T19:02:35;21.60;99.90
28193;DHT22;15473;50.840;3.396;2022-09-06T19:05:05;21.50;99.90
28193;DHT22;15473;50.840;3.396;2022-09-06T19:07:41;21.40;99.90
28193;DHT22;15473;50.840;3.396;2022-09-06T19:10:11;21.20;99.90
28193;DHT22;15473;50.840;3.396;2022-09-06T19:12:42;21.10;99.90
28193;DHT22;15473;50.840;3.396;2022-09-06T19:15:12;20.90;99.90
28193;DHT22;15473;50.840;3.396;2022-09-06T19:17:42;20.80;99.90
28193;DHT22;15473;50.840;3.396;2022-09-06T19:20:12;20.80;99.90
28193;DHT22;15473;50.840;3.396;2022-09-06T19:22:42;20.70;99.90
28193;DHT22;15473;50.840;3.396;2022-09-06T19:25:12;20.60;99.90
28193;DHT22;15473;50.840;3.396;2022-09-06T19:27:42;20.60;99.90
28193;DHT22;15473;50.840;3.396;2022-09-06T19:30:12;20.60;99.90
28193;DHT22;15473;50.840;3.396;2022-09-06T19:32:42;20.60;99.90
28193;DHT22;15473;50.840;3.396;2022-09-06T19:35:13;20.60;99.90
28193;DHT22;15473;50.840;3.396;2022-09-06T19:37:43;20.60;99.90
28193;DHT22;15473;50.840;3.396;2022-09-06T19:40:13;20.70;99.90
28193;DHT22;15473;50.840;3.396;2022-09-06T19:42:43;20.70;99.90
28193;DHT22;15473;50.840;3.396;2022-09-06T19:45:13;20.60;99.90
28193;DHT22;15473;50.840;3.396;2022-09-06T19:47:43;20.60;99.90
28193;DHT22;15473;50.840;3.396;2022-09-06T19:50:13;20.60;99.90
28193;DHT22;15473;50.840;3.396;2022-09-06T19:52:43;20.50;99.90
28193;DHT22;15473;50.840;3.396;2022-09-06T19:55:14;20.50;99.90
28193;DHT22;15473;50.840;3.396;2022-09-06T19:57:44;20.40;99.90
28193;DHT22;15473;50.840;3.396;2022-09-06T20:00:14;20.40;99.90
28193;DHT22;15473;50.840;3.396;2022-09-06T20:02:45;20.30;99.90
28193;DHT22;15473;50.840;3.396;2022-09-06T20:05:15;20.20;99.90
28193;DHT22;15473;50.840;3.396;2022-09-06T20:07:45;20.10;99.90
28193;DHT22;15473;50.840;3.396;2022-09-06T20:10:16;20.00;99.90
28193;DHT22;15473;50.840;3.396;2022-09-06T20:12:48;19.90;99.90
28193;DHT22;15473;50.840;3.396;2022-09-06T20:15:18;19.80;99.90
28193;DHT22;15473;50.840;3.396;2022-09-06T20:17:50;19.80;99.90
28193;DHT22;15473;50.840;3.396;2022-09-06T20:20:20;19.70;99.90
28193;DHT22;15473;50.840;3.396;2022-09-06T20:22:51;19.60;99.90
28193;DHT22;15473;50.840;3.396;2022-09-06T20:25:21;19.40;99.90
28193;DHT22;15473;50.840;3.396;2022-09-06T20:27:51;19.30;99.90
28193;DHT22;15473;50.840;3.396;2022-09-06T20:30:21;19.10;99.90
28193;DHT22;15473;50.840;3.396;2022-09-06T20:32:51;19.00;99.90
28193;DHT22;15473;50.840;3.396;2022-09-06T20:35:21;18.90;99.90
28193;DHT22;15473;50.840;3.396;2022-09-06T20:37:52;18.90;99.90
28193;DHT22;15473;50.840;3.396;2022-09-06T20:40:22;18.80;99.90
28193;DHT22;15473;50.840;3.396;2022-09-06T20:42:52;18.80;99.90
28193;DHT22;15473;50.840;3.396;2022-09-06T20:45:22;18.80;99.90
28193;DHT22;15473;50.840;3.396;2022-09-06T20:47:53;18.70;99.90
28193;DHT22;15473;50.840;3.396;2022-09-06T20:50:25;18.70;99.90
28193;DHT22;15473;50.840;3.396;2022-09-06T20:52:55;18.70;99.90
28193;DHT22;15473;50.840;3.396;2022-09-06T20:55:25;18.70;99.90
28193;DHT22;15473;50.840;3.396;2022-09-06T20:57:55;18.60;99.90
28193;DHT22;15473;50.840;3.396;2022-09-06T21:00:25;18.50;99.90
28193;DHT22;15473;50.840;3.396;2022-09-06T21:02:55;18.50;99.90
28193;DHT22;15473;50.840;3.396;2022-09-06T21:05:25;18.50;99.90
28193;DHT22;15473;50.840;3.396;2022-09-06T21:07:55;18.50;99.90
28193;DHT22;15473;50.840;3.396;2022-09-06T21:10:25;18.40;99.90
28193;DHT22;15473;50.840;3.396;2022-09-06T21:12:56;18.40;99.90
28193;DHT22;15473;50.840;3.396;2022-09-06T21:15:26;18.50;99.90
28193;DHT22;15473;50.840;3.396;2022-09-06T21:17:57;18.40;99.90
28193;DHT22;15473;50.840;3.396;2022-09-06T21:20:27;18.40;99.90
28193;DHT22;15473;50.840;3.396;2022-09-06T21:22:58;18.40;99.90
28193;DHT22;15473;50.840;3.396;2022-09-06T21:25:28;18.30;99.90
28193;DHT22;15473;50.840;3.396;2022-09-06T21:27:58;18.20;99.90
28193;DHT22;15473;50.840;3.396;2022-09-06T21:30:28;18.30;99.90
28193;DHT22;15473;50.840;3.396;2022-09-06T21:32:58;18.20;99.90
28193;DHT22;15473;50.840;3.396;2022-09-06T21:35:28;18.10;99.90
28193;DHT22;15473;50.840;3.396;2022-09-06T21:37:58;18.10;99.90
28193;DHT22;15473;50.840;3.396;2022-09-06T21:40:28;18.10;99.90
28193;DHT22;15473;50.840;3.396;2022-09-06T21:42:58;18.10;99.90
28193;DHT22;15473;50.840;3.396;2022-09-06T21:45:28;18.20;99.90
28193;DHT22;15473;50.840;3.396;2022-09-06T21:47:58;18.10;99.90
28193;DHT22;15473;50.840;3.396;2022-09-06T21:50:28;18.20;99.90
28193;DHT22;15473;50.840;3.396;2022-09-06T21:52:59;18.20;99.90
28193;DHT22;15473;50.840;3.396;2022-09-06T21:55:31;18.10;99.90
28193;DHT22;15473;50.840;3.396;2022-09-06T21:58:01;18.00;99.90
28193;DHT22;15473;50.840;3.396;2022-09-06T22:00:32;18.00;99.90
28193;DHT22;15473;50.840;3.396;2022-09-06T22:03:02;18.10;99.90